Time;durP1;ratioP1;P1;durP2;ratioP2;P2;SDS_P1;SDS_P2;PMS_P1;PMS_P2;Temp;Humidity;BMP_temperature;BMP_pressure;BME280_temperature;BME280_humidity;BME280_pressure;Samples;Min_cycle;Max_cycle;Signal;HPM_P1;HPM_P2
2022/04/09 00:00:31;;;;;;;8.07;5.55;;;;;;;7.00;87.89;97499.63;4995646;28;20416;-71
2022/04/09 00:02:55;;;;;;;7.65;4.57;;;;;;;7.00;87.55;97521.63;4990837;28;20125;-68
2022/04/09 00:05:20;;;;;;;6.40;3.55;;;;;;;7.02;87.12;97510.91;5000050;28;20109;-71
2022/04/09 00:07:45;;;;;;;3.35;2.85;;;;;;;6.92;86.11;97498.50;5020983;28;20516;-69
2022/04/09 00:10:11;;;;;;;3.50;2.45;;;;;;;6.74;85.58;97517.88;5000356;28;20065;-72
2022/04/09 00:12:38;;;;;;;4.13;3.00;;;;;;;6.73;85.59;97522.34;4997867;28;20029;-71
2022/04/09 00:15:03;;;;;;;4.25;2.85;;;;;;;6.69;85.70;97523.56;5000429;28;20416;-69
2022/04/09 00:17:28;;;;;;;2.83;1.90;;;;;;;6.66;85.89;97539.72;5014403;28;20083;-69
2022/04/09 00:19:53;;;;;;;3.30;2.40;;;;;;;6.62;85.43;97535.69;5005426;28;20068;-70
2022/04/09 00:22:19;;;;;;;2.90;1.88;;;;;;;6.57;85.16;97548.47;5014846;28;20083;-73
2022/04/09 00:24:43;;;;;;;2.38;1.98;;;;;;;6.46;85.13;97552.09;5017240;28;20040;-76
2022/04/09 00:27:08;;;;;;;3.53;2.28;;;;;;;6.44;84.77;97559.31;5019510;28;20052;-70
2022/04/09 00:29:33;;;;;;;8.00;2.30;;;;;;;6.43;85.29;97556.84;5018667;28;20181;-76
2022/04/09 00:31:58;;;;;;;3.63;2.40;;;;;;;6.41;85.12;97551.66;4992781;28;20174;-71
2022/04/09 00:34:22;;;;;;;2.08;1.67;;;;;;;6.42;85.08;97553.34;5019976;28;20041;-70
2022/04/09 00:36:47;;;;;;;3.38;3.05;;;;;;;6.39;84.92;97552.75;5018161;28;20491;-68
2022/04/09 00:39:12;;;;;;;4.10;2.58;;;;;;;6.33;84.90;97556.78;5006677;28;20186;-67
2022/04/09 00:41:40;;;;;;;2.22;2.05;;;;;;;6.30;85.03;97569.44;5008225;28;20047;-71
2022/04/09 00:44:15;;;;;;;3.25;2.20;;;;;;;6.23;85.25;97549.78;5010731;28;20047;-76
2022/04/09 00:46:39;;;;;;;2.35;2.15;;;;;;;6.18;85.08;97560.78;5002923;28;20439;-72
2022/04/09 00:49:04;;;;;;;2.78;2.55;;;;;;;6.14;85.13;97556.72;5012539;28;20067;-72
2022/04/09 00:51:29;;;;;;;2.50;1.98;;;;;;;6.12;85.31;97562.13;5018575;28;20041;-72
2022/04/09 00:53:55;;;;;;;3.55;2.58;;;;;;;6.10;85.03;97568.50;5019783;28;20044;-71
2022/04/09 00:56:22;;;;;;;4.28;2.65;;;;;;;6.08;85.46;97566.03;5002254;28;20063;-71
2022/04/09 00:58:55;;;;;;;3.20;2.90;;;;;;;6.13;85.30;97581.47;5014269;28;20060;-72
2022/04/09 01:01:24;;;;;;;3.53;2.35;;;;;;;6.15;85.14;97576.91;5010345;28;20048;-72
2022/04/09 01:03:52;;;;;;;6.05;3.08;;;;;;;6.13;85.25;97571.75;5021611;28;20036;-72
2022/04/09 01:06:18;;;;;;;3.17;2.88;;;;;;;6.07;85.18;97585.50;5020450;28;20483;-73
2022/04/09 01:08:42;;;;;;;6.05;2.67;;;;;;;6.05;85.22;97586.59;4995474;28;20064;-72
2022/04/09 01:11:08;;;;;;;4.05;2.72;;;;;;;6.07;85.09;97588.16;5012958;28;20040;-72
2022/04/09 01:13:34;;;;;;;4.00;3.20;;;;;;;6.04;85.41;97599.00;4991031;28;20519;-73
2022/04/09 01:15:59;;;;;;;4.55;3.63;;;;;;;6.00;85.46;97588.78;4992680;28;20041;-76
2022/04/09 01:18:24;;;;;;;5.15;3.33;;;;;;;6.11;85.24;97604.59;5002224;28;20041;-73
2022/04/09 01:21:01;;;;;;;3.40;2.83;;;;;;;6.10;85.14;97613.47;5016997;28;20391;-74
2022/04/09 01:23:28;;;;;;;5.80;3.17;;;;;;;6.03;85.43;97613.19;5019605;28;20037;-73
2022/04/09 01:25:58;;;;;;;5.35;3.60;;;;;;;6.06;85.38;97620.88;5027468;28;20562;-71
2022/04/09 01:28:25;;;;;;;3.60;3.03;;;;;;;6.04;85.26;97616.66;5008438;28;20051;-74
2022/04/09 01:30:50;;;;;;;4.00;3.35;;;;;;;5.96;84.99;97608.56;4994239;28;20052;-75
2022/04/09 01:33:17;;;;;;;3.47;3.08;;;;;;;5.78;84.45;97632.91;4998429;28;20049;-76
2022/04/09 01:35:44;;;;;;;4.43;3.22;;;;;;;5.82;84.44;97628.19;5035233;28;20105;-73
2022/04/09 01:38:10;;;;;;;4.07;2.75;;;;;;;5.82;84.41;97625.56;5016292;28;20048;-73
2022/04/09 01:40:37;;;;;;;2.95;2.65;;;;;;;5.82;83.69;97636.13;5013416;28;20430;-74
2022/04/09 01:43:02;;;;;;;3.25;2.92;;;;;;;5.77;83.82;97635.66;5022331;28;20096;-74
2022/04/09 01:45:30;;;;;;;4.45;3.03;;;;;;;5.85;83.77;97649.09;5021668;28;20052;-73
2022/04/09 01:47:59;;;;;;;4.47;3.25;;;;;;;5.76;83.63;97655.13;5018240;28;20127;-74
2022/04/09 01:50:26;;;;;;;3.88;3.25;;;;;;;5.84;83.72;97653.56;5025166;28;20135;-75
2022/04/09 01:52:54;;;;;;;5.10;3.53;;;;;;;5.94;83.62;97666.88;5005863;28;20547;-75
2022/04/09 01:55:19;;;;;;;4.78;3.53;;;;;;;5.85;83.37;97659.69;4987827;28;20064;-74
2022/04/09 01:57:47;;;;;;;3.60;3.22;;;;;;;5.76;82.89;97676.28;5009870;28;20108;-73
2022/04/09 02:00:14;;;;;;;5.60;3.17;;;;;;;5.71;82.60;97679.31;4994740;28;20040;-73
2022/04/09 02:02:41;;;;;;;3.95;2.83;;;;;;;5.75;82.35;97682.56;5014914;28;20033;-73
2022/04/09 02:05:08;;;;;;;3.05;2.80;;;;;;;5.71;82.38;97686.41;4990974;28;20447;-73
2022/04/09 02:07:35;;;;;;;4.25;3.30;;;;;;;5.71;82.10;97703.13;5008438;28;20131;-73
2022/04/09 02:09:59;;;;;;;4.45;2.95;;;;;;;5.65;82.42;97706.25;5011362;28;20056;-74
2022/04/09 02:12:31;;;;;;;3.17;2.70;;;;;;;5.65;82.41;97711.53;5015486;28;20088;-76
2022/04/09 02:14:56;;;;;;;4.20;3.03;;;;;;;5.55;81.57;97704.50;5025097;28;20123;-72
2022/04/09 02:17:21;;;;;;;3.72;3.20;;;;;;;5.47;81.35;97711.25;5021801;28;20044;-73
2022/04/09 02:19:46;;;;;;;3.13;2.78;;;;;;;5.47;81.64;97716.53;5018998;28;20140;-72
2022/04/09 02:22:10;;;;;;;2.72;2.47;;;;;;;5.45;81.61;97710.53;5021356;28;20491;-71
2022/04/09 02:24:35;;;;;;;3.05;2.72;;;;;;;5.51;81.60;97719.78;5020541;28;20439;-71
2022/04/09 02:27:00;;;;;;;4.53;2.92;;;;;;;5.63;82.43;97721.44;4999648;28;20135;-71
2022/04/09 02:29:25;;;;;;;2.92;2.72;;;;;;;5.74;82.27;97715.25;5015483;28;20127;-71
2022/04/09 02:31:50;;;;;;;3.33;2.88;;;;;;;5.80;81.76;97731.44;5015574;28;20047;-71
2022/04/09 02:34:16;;;;;;;4.50;3.40;;;;;;;5.78;81.29;97736.00;5000528;28;20531;-78
2022/04/09 02:36:40;;;;;;;5.30;3.00;;;;;;;5.80;81.67;97735.88;5018461;28;20497;-77
2022/04/09 02:39:05;;;;;;;5.10;3.78;;;;;;;5.69;81.32;97722.72;5018702;28;20423;-76
2022/04/09 02:41:31;;;;;;;4.00;3.55;;;;;;;5.79;81.60;97739.50;5016444;28;20535;-76
2022/04/09 02:43:57;;;;;;;3.65;3.08;;;;;;;5.83;81.57;97739.13;4998293;28;20078;-71
2022/04/09 02:46:22;;;;;;;2.85;2.55;;;;;;;5.90;81.33;97744.78;5015802;28;20407;-74
2022/04/09 02:48:47;;;;;;;3.88;3.10;;;;;;;5.82;80.54;97750.66;4999997;28;20415;-77
2022/04/09 02:51:15;;;;;;;4.55;3.40;;;;;;;5.72;80.91;97747.09;5017401;28;20040;-79
2022/04/09 02:53:40;;;;;;;3.35;2.90;;;;;;;5.70;81.08;97750.84;5017650;28;20048;-78
2022/04/09 02:56:05;;;;;;;5.38;4.03;;;;;;;5.71;80.88;97755.16;5015945;28;20049;-68
2022/04/09 02:58:35;;;;;;;5.30;3.47;;;;;;;5.74;80.69;97766.31;4997837;28;20495;-68
2022/04/09 03:00:59;;;;;;;4.18;3.25;;;;;;;5.83;80.33;97757.63;5014384;28;20561;-67
2022/04/09 03:03:26;;;;;;;5.10;3.70;;;;;;;5.80;79.92;97767.63;5014635;28;20067;-69
2022/04/09 03:05:51;;;;;;;5.25;3.88;;;;;;;5.86;80.14;97767.13;5015807;28;20155;-71
2022/04/09 03:08:16;;;;;;;4.95;3.55;;;;;;;5.94;80.60;97772.66;4997848;28;20051;-71
2022/04/09 03:10:41;;;;;;;5.85;4.43;;;;;;;5.99;80.23;97766.97;5016377;28;20132;-76
2022/04/09 03:13:06;;;;;;;4.53;3.72;;;;;;;5.99;79.81;97764.31;5016684;28;20116;-76
2022/04/09 03:15:31;;;;;;;5.93;4.05;;;;;;;5.92;79.14;97763.16;5018176;28;20132;-78
2022/04/09 03:17:57;;;;;;;5.55;3.95;;;;;;;5.90;78.95;97773.03;5000383;28;20049;-78
2022/04/09 03:20:24;;;;;;;5.18;4.30;;;;;;;5.83;78.52;97777.94;5016755;28;20136;-77
2022/04/09 03:22:49;;;;;;;6.22;3.72;;;;;;;5.90;79.42;97789.72;5000200;28;20037;-79
2022/04/09 03:25:43;;;;;;;4.47;3.63;;;;;;;5.80;78.88;97786.13;4935179;28;20109;-70
2022/04/09 03:28:09;;;;;;;5.72;3.97;;;;;;;5.78;79.01;97795.97;4935309;28;20635;-76
2022/04/09 03:30:36;;;;;;;5.65;4.60;;;;;;;5.65;78.60;97801.41;4918938;28;20807;-73
2022/04/09 03:33:02;;;;;;;6.57;4.25;;;;;;;5.73;78.93;97795.53;4919016;28;20472;-75
2022/04/09 03:35:31;;;;;;;5.43;3.90;;;;;;;5.79;78.67;97795.03;4918168;28;20058;-70
2022/04/09 03:37:57;;;;;;;5.10;3.72;;;;;;;5.86;78.70;97793.56;4918530;28;20066;-71
2022/04/09 03:40:32;;;;;;;5.50;4.13;;;;;;;5.95;78.75;97798.13;4926698;28;20107;-71
2022/04/09 03:42:56;;;;;;;5.28;4.20;;;;;;;5.95;78.26;97798.13;4942424;28;20078;-71
2022/04/09 03:45:21;;;;;;;5.45;4.13;;;;;;;6.04;77.98;97805.31;4933459;28;20057;-73
2022/04/09 03:47:46;;;;;;;5.75;3.97;;;;;;;6.08;77.58;97806.75;4909261;29;20051;-71
2022/04/09 03:50:14;;;;;;;6.60;4.20;;;;;;;6.08;77.65;97822.63;4898416;29;20105;-72
2022/04/09 03:52:40;;;;;;;4.78;3.97;;;;;;;6.14;78.08;97823.91;4932981;29;20094;-72
2022/04/09 03:55:07;;;;;;;6.85;4.50;;;;;;;6.19;77.89;97842.91;4916915;28;20107;-74
2022/04/09 03:57:32;;;;;;;5.43;4.20;;;;;;;6.26;77.93;97844.06;4883465;29;20399;-72
2022/04/09 03:59:57;;;;;;;5.95;4.68;;;;;;;6.22;77.77;97847.06;4915454;29;20629;-74
2022/04/09 04:02:23;;;;;;;6.10;4.00;;;;;;;6.29;77.29;97856.22;4949923;28;20186;-72
2022/04/09 04:04:50;;;;;;;7.78;4.97;;;;;;;6.19;76.93;97854.31;5000675;28;20055;-73
2022/04/09 04:07:20;;;;;;;7.28;4.45;;;;;;;6.13;77.05;97864.56;5013281;28;20033;-71
2022/04/09 04:09:45;;;;;;;6.63;4.97;;;;;;;6.14;77.19;97877.66;5008394;28;20461;-73
2022/04/09 04:12:11;;;;;;;5.57;3.97;;;;;;;6.16;76.75;97873.09;4993904;28;20044;-72
2022/04/09 04:14:36;;;;;;;11.60;5.00;;;;;;;6.12;76.89;97879.59;5014653;28;20137;-71
2022/04/09 04:17:02;;;;;;;5.38;4.32;;;;;;;6.18;77.24;97884.38;5005433;28;20045;-72
2022/04/09 04:19:30;;;;;;;6.72;4.70;;;;;;;6.11;77.15;97888.47;4997454;28;20060;-72
2022/04/09 04:21:55;;;;;;;9.38;5.13;;;;;;;6.12;76.87;97887.53;5033838;28;20079;-73
2022/04/09 04:24:23;;;;;;;9.07;4.75;;;;;;;6.12;76.60;97892.81;5016685;28;20479;-72
2022/04/09 04:26:48;;;;;;;4.95;3.95;;;;;;;5.98;76.41;97898.38;5016916;28;20068;-69
2022/04/09 04:29:19;;;;;;;5.60;4.38;;;;;;;6.03;76.24;97901.50;5034678;28;20090;-68
2022/04/09 04:31:44;;;;;;;7.75;4.38;;;;;;;6.13;76.54;97907.72;5016802;28;20036;-69
2022/04/09 04:34:09;;;;;;;5.30;4.32;;;;;;;6.09;76.04;97908.97;5033231;28;20056;-69
2022/04/09 04:36:39;;;;;;;7.30;4.78;;;;;;;6.14;76.10;97912.06;5016908;28;20079;-69
2022/04/09 04:39:04;;;;;;;7.57;4.25;;;;;;;6.13;76.13;97907.72;5035019;28;20090;-68
2022/04/09 04:41:30;;;;;;;5.80;4.55;;;;;;;6.06;75.46;97916.28;5016977;28;20047;-68
2022/04/09 04:43:55;;;;;;;7.15;4.63;;;;;;;6.16;75.57;97917.22;5001704;28;20048;-69
2022/04/09 04:46:25;;;;;;;5.47;4.13;;;;;;;6.25;75.80;97915.63;5016760;28;20044;-68
2022/04/09 04:48:51;;;;;;;8.77;4.90;;;;;;;6.29;74.50;97915.28;5017803;28;20055;-68
2022/04/09 04:51:20;;;;;;;4.88;4.05;;;;;;;6.33;74.28;97914.03;5016711;28;20448;-70
2022/04/09 04:53:45;;;;;;;6.47;4.28;;;;;;;6.39;74.24;97918.00;5000021;28;20113;-68
2022/04/09 04:56:09;;;;;;;4.47;3.78;;;;;;;6.42;74.86;97918.59;5034391;28;20117;-68
2022/04/09 04:58:48;;;;;;;7.38;3.95;;;;;;;6.45;75.07;97920.13;5016610;28;20063;-68
2022/04/09 05:01:14;;;;;;;5.75;4.30;;;;;;;6.37;74.40;97927.88;4999795;28;20044;-67
2022/04/09 05:03:43;;;;;;;5.15;3.55;;;;;;;6.31;74.32;97936.31;4999870;28;20898;-68
2022/04/09 05:06:15;;;;;;;7.25;4.90;;;;;;;6.23;74.26;97946.66;4999853;28;20040;-67
2022/04/09 05:08:41;;;;;;;4.38;3.72;;;;;;;6.30;74.52;97948.72;5033181;28;20127;-67
2022/04/09 05:11:11;;;;;;;5.90;3.78;;;;;;;6.27;74.35;97961.34;5019349;28;20076;-67
2022/04/09 05:13:37;;;;;;;10.55;4.47;;;;;;;6.09;73.81;97969.81;5022125;28;20094;-70
2022/04/09 05:16:02;;;;;;;7.03;4.60;;;;;;;6.11;74.15;97983.72;5021252;28;20463;-69
2022/04/09 05:18:32;;;;;;;5.63;4.25;;;;;;;6.20;74.48;97982.16;5042742;28;20084;-70
2022/04/09 05:20:57;;;;;;;6.57;4.18;;;;;;;6.21;74.64;97980.38;5025106;28;20398;-72
2022/04/09 05:23:22;;;;;;;7.18;5.03;;;;;;;6.08;74.39;97978.69;5026036;28;20048;-70
2022/04/09 05:25:48;;;;;;;6.20;4.20;;;;;;;6.18;74.88;97989.38;5004466;28;20521;-68
2022/04/09 05:28:14;;;;;;;7.70;4.78;;;;;;;6.10;74.91;97989.13;5003159;28;20044;-67
2022/04/09 05:30:44;;;;;;;6.93;4.90;;;;;;;6.14;74.91;97995.88;5019709;28;20032;-66
2022/04/09 05:33:09;;;;;;;5.35;4.40;;;;;;;6.30;75.17;97999.00;5019664;28;20044;-69
2022/04/09 05:35:36;;;;;;;6.03;4.30;;;;;;;6.36;74.61;98005.56;5020929;28;20051;-70
2022/04/09 05:38:03;;;;;;;7.78;4.93;;;;;;;6.45;74.26;98012.78;5038454;28;20041;-70
2022/04/09 05:40:31;;;;;;;5.45;4.20;;;;;;;6.60;74.37;98022.13;5020123;28;20075;-69
2022/04/09 05:43:01;;;;;;;6.30;4.95;;;;;;;6.54;73.83;98027.94;5003553;28;20051;-71
2022/04/09 05:45:25;;;;;;;7.22;4.30;;;;;;;6.59;73.65;98038.97;5019361;28;20048;-67
2022/04/09 05:47:53;;;;;;;6.43;5.18;;;;;;;6.66;73.15;98048.09;5003611;28;20040;-68
2022/04/09 05:50:24;;;;;;;5.15;4.25;;;;;;;6.65;72.99;98042.97;5019144;28;20047;-69
2022/04/09 05:52:51;;;;;;;7.22;4.97;;;;;;;6.69;73.15;98053.16;5019188;28;20048;-68
2022/04/09 05:55:18;;;;;;;6.15;3.90;;;;;;;6.71;73.38;98060.97;5019862;28;20131;-68
2022/04/09 05:57:43;;;;;;;6.43;4.68;;;;;;;6.65;72.95;98066.78;5019656;28;20185;-67
2022/04/09 06:00:10;;;;;;;7.25;5.05;;;;;;;6.61;73.22;98081.22;5002641;28;20048;-67
2022/04/09 06:02:40;;;;;;;7.38;4.53;;;;;;;6.41;73.08;98088.97;5037189;28;20040;-71
2022/04/09 06:05:08;;;;;;;9.63;5.07;;;;;;;6.47;73.77;98096.41;5019082;28;20056;-68
2022/04/09 06:07:35;;;;;;;6.57;4.57;;;;;;;6.50;73.55;98100.63;5002611;28;20036;-67
2022/04/09 06:10:06;;;;;;;6.75;4.85;;;;;;;6.44;73.68;98112.53;5002399;28;20055;-68
2022/04/09 06:12:35;;;;;;;8.10;4.85;;;;;;;6.59;73.50;98115.75;5037024;28;20127;-69
2022/04/09 06:15:09;;;;;;;7.72;4.88;;;;;;;6.57;73.49;98113.22;5018900;28;20140;-68
2022/04/09 06:17:48;;;;;;;9.75;4.90;;;;;;;6.47;73.05;98111.44;5018797;28;20526;-67
2022/04/09 06:20:13;;;;;;;8.32;5.50;;;;;;;6.48;73.43;98126.38;5002292;28;20495;-68
2022/04/09 06:22:41;;;;;;;8.52;5.25;;;;;;;6.58;73.60;98108.78;5033797;28;20048;-71
2022/04/09 06:25:07;;;;;;;6.15;4.72;;;;;;;6.58;73.56;98116.72;5018879;28;20526;-72
2022/04/09 06:27:35;;;;;;;6.82;4.78;;;;;;;6.68;73.09;98117.66;5024529;28;20384;-72
2022/04/09 06:30:04;;;;;;;7.57;5.22;;;;;;;6.81;73.23;98115.72;5046266;28;20044;-73
2022/04/09 06:32:29;;;;;;;6.85;4.72;;;;;;;6.86;72.47;98116.22;5011014;28;20045;-70
2022/04/09 06:34:53;;;;;;;8.07;5.07;;;;;;;6.97;72.48;98110.06;5027750;28;20131;-69
2022/04/09 06:37:23;;;;;;;6.85;5.28;;;;;;;6.89;71.60;98117.75;5034945;28;20051;-70
2022/04/09 06:39:48;;;;;;;7.10;5.18;;;;;;;6.97;71.49;98122.44;5035198;28;20181;-73
2022/04/09 06:42:14;;;;;;;6.88;5.13;;;;;;;7.04;71.49;98123.63;4984960;28;20048;-70
2022/04/09 06:45:03;;;;;;;6.72;5.18;;;;;;;7.04;71.16;98136.88;5021958;28;20070;-70
2022/04/09 06:47:44;;;;;;;5.88;4.13;;;;;;;7.25;71.18;98137.78;5004401;28;20044;-69
2022/04/09 06:50:11;;;;;;;8.57;5.13;;;;;;;7.11;70.84;98138.09;5034739;28;20528;-69
2022/04/09 06:52:38;;;;;;;7.80;4.90;;;;;;;7.21;71.27;98144.31;5018252;28;20402;-68
2022/04/09 06:55:13;;;;;;;7.25;4.57;;;;;;;7.17;70.73;98148.16;5002437;28;20052;-70
2022/04/09 06:57:41;;;;;;;7.70;5.30;;;;;;;7.09;70.82;98156.75;5017899;28;20453;-69
2022/04/09 07:00:11;;;;;;;7.63;4.65;;;;;;;7.12;70.33;98164.44;5000891;28;20117;-68
2022/04/09 07:02:36;;;;;;;8.07;5.28;;;;;;;7.19;70.30;98173.59;5000658;28;20032;-68
2022/04/09 07:05:01;;;;;;;5.63;4.43;;;;;;;7.28;70.62;98172.84;5035630;28;20056;-68
2022/04/09 07:07:27;;;;;;;7.78;4.95;;;;;;;7.33;70.01;98185.72;5035587;28;20040;-69
2022/04/09 07:09:55;;;;;;;10.85;5.13;;;;;;;7.26;70.26;98190.66;5035370;28;20406;-68
2022/04/09 07:12:22;;;;;;;8.57;5.00;;;;;;;7.14;70.12;98185.50;5035903;28;20036;-67
2022/04/09 07:14:47;;;;;;;11.18;5.35;;;;;;;7.31;69.88;98192.13;5035341;28;20060;-68
2022/04/09 07:17:11;;;;;;;7.95;4.63;;;;;;;7.32;69.47;98199.94;5035628;28;20178;-68
2022/04/09 07:19:38;;;;;;;7.30;5.10;;;;;;;7.35;69.33;98193.53;5035473;28;20097;-68
2022/04/09 07:22:03;;;;;;;9.00;4.80;;;;;;;7.43;69.69;98201.72;5035076;28;20036;-68
2022/04/09 07:24:28;;;;;;;7.93;5.60;;;;;;;7.55;69.16;98204.22;5035134;28;20495;-68
2022/04/09 07:26:52;;;;;;;8.32;5.18;;;;;;;7.53;69.09;98213.25;5035210;28;20052;-68
2022/04/09 07:29:17;;;;;;;7.18;5.28;;;;;;;7.55;68.78;98213.97;5017232;28;20193;-68
2022/04/09 07:31:42;;;;;;;13.25;4.97;;;;;;;7.69;69.12;98226.94;5000763;28;20042;-68
2022/04/09 07:34:07;;;;;;;9.15;5.32;;;;;;;7.69;68.42;98236.69;5035123;28;20051;-69
2022/04/09 07:36:31;;;;;;;7.10;4.70;;;;;;;7.80;68.78;98247.25;5036725;28;20044;-69
2022/04/09 07:38:56;;;;;;;9.70;5.90;;;;;;;7.86;68.73;98255.56;5035493;28;20056;-72
2022/04/09 07:41:21;;;;;;;8.13;5.05;;;;;;;7.89;68.38;98246.53;5016741;28;20037;-70
2022/04/09 07:43:46;;;;;;;6.53;4.75;;;;;;;7.93;67.69;98256.75;5000427;28;20054;-69
2022/04/09 07:46:10;;;;;;;7.47;5.50;;;;;;;7.98;67.64;98259.88;5017244;28;20410;-68
2022/04/09 07:48:35;;;;;;;7.38;4.68;;;;;;;8.00;67.79;98263.25;5035240;28;20040;-68
2022/04/09 07:51:00;;;;;;;9.60;5.50;;;;;;;8.03;67.80;98270.09;5018130;28;20071;-69
2022/04/09 07:53:25;;;;;;;10.07;5.57;;;;;;;7.98;67.03;98264.34;5035777;28;20414;-71
2022/04/09 07:55:50;;;;;;;8.02;4.78;;;;;;;8.04;67.34;98271.78;5017694;28;20040;-70
2022/04/09 07:58:14;;;;;;;8.32;4.85;;;;;;;7.89;67.65;98259.78;5000119;28;20063;-70
2022/04/09 08:00:40;;;;;;;7.32;5.50;;;;;;;7.75;67.49;98278.66;5000306;28;20050;-69
2022/04/09 08:03:05;;;;;;;8.82;5.63;;;;;;;7.75;67.48;98286.59;5034965;28;20044;-71
2022/04/09 08:05:29;;;;;;;7.80;4.82;;;;;;;7.76;67.57;98277.69;5000664;28;20440;-73
2022/04/09 08:07:54;;;;;;;7.90;5.40;;;;;;;7.88;67.57;98277.53;5000631;28;20051;-72
2022/04/09 08:10:19;;;;;;;6.03;4.70;;;;;;;7.94;67.63;98276.16;5036224;28;20044;-72
2022/04/09 08:12:48;;;;;;;7.53;5.40;;;;;;;7.89;66.61;98278.38;5018985;28;20056;-68
2022/04/09 08:15:14;;;;;;;7.82;5.40;;;;;;;7.83;67.34;98282.34;5037474;28;20071;-70
2022/04/09 08:17:39;;;;;;;7.68;5.68;;;;;;;7.75;67.32;98291.91;5046359;28;20044;-69
2022/04/09 08:20:05;;;;;;;5.28;4.53;;;;;;;7.88;67.36;98304.06;5050875;28;20036;-69
2022/04/09 08:22:31;;;;;;;7.07;5.00;;;;;;;7.92;66.99;98297.50;5054008;28;20060;-70
2022/04/09 08:24:56;;;;;;;8.82;5.85;;;;;;;7.96;67.45;98304.25;5018528;28;20040;-70
2022/04/09 08:27:22;;;;;;;7.53;5.15;;;;;;;7.97;67.49;98315.72;5016841;28;20409;-70
2022/04/09 08:29:47;;;;;;;12.32;5.82;;;;;;;7.84;67.54;98310.56;5034739;28;20037;-67
2022/04/09 08:32:13;;;;;;;9.35;5.07;;;;;;;7.71;67.55;98312.53;5034767;28;20037;-66
2022/04/09 08:34:38;;;;;;;7.00;5.00;;;;;;;7.71;68.14;98311.69;5034371;28;20121;-66
2022/04/09 08:37:06;;;;;;;8.57;5.30;;;;;;;7.45;67.70;98311.16;5034495;28;20105;-67
2022/04/09 08:39:31;;;;;;;9.00;4.65;;;;;;;7.46;68.16;98307.50;5034198;28;20109;-66
2022/04/09 08:41:56;;;;;;;7.88;4.82;;;;;;;7.45;68.35;98305.84;5016573;28;20066;-66
2022/04/09 08:44:21;;;;;;;7.15;4.90;;;;;;;7.55;68.23;98304.16;5016248;28;20095;-66
2022/04/09 08:46:47;;;;;;;8.45;5.55;;;;;;;7.81;67.63;98308.16;5018789;28;20135;-67
2022/04/09 08:49:12;;;;;;;8.30;5.35;;;;;;;8.24;66.32;98305.47;5046303;28;20048;-67
2022/04/09 08:51:37;;;;;;;9.32;4.57;;;;;;;8.77;65.86;98299.31;5043399;28;20032;-68
2022/04/09 08:54:04;;;;;;;5.47;4.25;;;;;;;9.29;64.11;98308.94;5038486;28;20056;-67
2022/04/09 08:56:29;;;;;;;8.40;5.10;;;;;;;9.80;62.29;98307.00;5038340;28;20632;-67
2022/04/09 08:58:54;;;;;;;6.82;4.47;;;;;;;10.15;60.16;98305.63;5037989;28;20470;-67
2022/04/09 09:01:22;;;;;;;8.65;4.97;;;;;;;10.31;59.51;98319.25;5037968;28;20506;-67
2022/04/09 09:03:47;;;;;;;10.23;4.53;;;;;;;10.11;59.38;98323.69;5036788;28;20127;-66
2022/04/09 09:06:27;;;;;;;8.02;4.82;;;;;;;9.64;58.46;98324.44;5019691;28;20132;-67
2022/04/09 09:08:52;;;;;;;8.20;5.95;;;;;;;9.54;60.59;98327.09;5037551;28;20470;-66
2022/04/09 09:11:16;;;;;;;6.75;4.53;;;;;;;9.64;60.39;98327.94;5019750;28;20470;-67
2022/04/09 09:13:53;;;;;;;7.97;5.28;;;;;;;9.44;60.42;98328.88;5037795;28;20051;-67
2022/04/09 09:16:27;;;;;;;7.35;5.43;;;;;;;9.03;62.12;98329.78;5037927;28;20044;-66
2022/04/09 09:19:12;;;;;;;8.90;5.70;;;;;;;8.86;62.83;98331.25;5037868;28;20048;-67
2022/04/09 09:21:37;;;;;;;11.35;5.57;;;;;;;9.42;62.66;98320.19;5037613;28;20070;-66
2022/04/09 09:24:13;;;;;;;6.80;5.00;;;;;;;10.24;59.72;98327.94;5037419;28;20119;-67
2022/04/09 09:26:38;;;;;;;7.22;4.82;;;;;;;12.75;55.58;98333.06;5019425;28;20052;-66
2022/04/09 09:29:03;;;;;;;5.93;4.80;;;;;;;14.21;49.77;98317.72;5037648;28;20044;-67
2022/04/09 09:31:45;;;;;;;8.70;4.63;;;;;;;15.80;50.30;98326.00;5020298;28;20113;-69
2022/04/09 09:34:20;;;;;;;6.43;4.43;;;;;;;17.78;45.13;98330.28;5019906;28;20444;-68
2022/04/09 09:36:45;;;;;;;5.05;4.35;;;;;;;20.12;40.46;98334.66;5037732;28;20051;-68
2022/04/09 09:39:12;;;;;;;5.65;4.47;;;;;;;21.18;36.94;98316.75;5020011;28;20090;-67
2022/04/09 09:41:55;;;;;;;7.82;4.40;;;;;;;22.46;34.95;98316.81;5037444;28;20126;-69
2022/04/09 09:44:22;;;;;;;6.10;4.38;;;;;;;22.39;30.11;98298.88;5019027;28;20054;-68
2022/04/09 09:46:49;;;;;;;6.10;4.57;;;;;;;22.18;30.95;98299.22;5036839;28;20460;-67
2022/04/09 09:49:14;;;;;;;6.18;4.07;;;;;;;22.63;31.05;98303.56;5037445;28;20036;-68
2022/04/09 09:51:40;;;;;;;5.32;4.00;;;;;;;22.34;31.31;98304.16;5019475;28;20036;-70
2022/04/09 09:54:10;;;;;;;5.18;4.20;;;;;;;23.52;30.66;98318.75;5019827;28;20052;-69
2022/04/09 09:56:42;;;;;;;5.53;4.30;;;;;;;23.86;26.54;98309.19;5037783;28;20050;-70
2022/04/09 09:59:10;;;;;;;4.68;3.90;;;;;;;23.62;28.53;98313.63;5037619;28;20570;-69
2022/04/09 10:01:40;;;;;;;5.20;4.35;;;;;;;23.38;27.16;98309.84;5037277;28;20082;-70
2022/04/09 10:04:06;;;;;;;4.68;4.28;;;;;;;24.10;27.08;98311.00;5037418;28;20048;-73
2022/04/09 10:06:35;;;;;;;5.18;4.10;;;;;;;25.74;26.10;98322.34;5019891;28;20131;-70
2022/04/09 10:09:05;;;;;;;4.82;4.43;;;;;;;27.40;23.90;98324.78;5002096;28;20044;-70
2022/04/09 10:11:34;;;;;;;5.65;4.15;;;;;;;29.39;21.96;98317.88;5020701;28;20384;-70
2022/04/09 10:14:01;;;;;;;6.85;4.55;;;;;;;29.73;20.12;98332.13;5037297;28;20048;-73
2022/04/09 10:16:29;;;;;;;4.70;4.30;;;;;;;27.57;22.06;98321.22;5039462;28;20041;-74
2022/04/09 10:18:58;;;;;;;4.65;4.25;;;;;;;25.74;23.61;98319.59;5038844;28;20044;-76
2022/04/09 10:21:24;;;;;;;4.45;3.97;;;;;;;23.95;26.36;98313.25;5017589;28;20052;-76
2022/04/09 10:23:49;;;;;;;5.13;4.00;;;;;;;22.36;27.87;98302.88;5018250;28;20045;-74
2022/04/09 10:26:15;;;;;;;5.60;4.07;;;;;;;20.77;30.22;98304.22;5017535;28;20079;-74
2022/04/09 10:28:40;;;;;;;9.10;4.63;;;;;;;19.39;32.15;98303.66;4998940;28;20049;-73
2022/04/09 10:31:28;;;;;;;7.25;4.75;;;;;;;18.26;33.16;98296.44;4999280;28;20152;-75
2022/04/09 10:33:55;;;;;;;5.28;4.00;;;;;;;17.37;35.52;98297.56;5008563;28;20107;-74
2022/04/09 10:36:40;;;;;;;4.85;4.18;;;;;;;17.48;35.18;98299.78;5017218;28;20114;-75
2022/04/09 10:39:36;;;;;;;6.07;3.95;;;;;;;16.46;36.26;98298.53;5019051;28;20048;-75
2022/04/09 10:42:02;;;;;;;5.03;3.88;;;;;;;15.32;38.55;98313.53;4999943;28;20052;-73
2022/04/09 10:44:50;;;;;;;5.38;4.47;;;;;;;14.60;39.86;98318.78;4999771;28;20053;-73
2022/04/09 10:47:15;;;;;;;7.55;4.53;;;;;;;13.84;40.66;98308.25;5016983;28;20055;-74
2022/04/09 10:49:42;;;;;;;7.05;4.50;;;;;;;13.31;41.70;98308.53;4999265;28;20045;-77
2022/04/09 10:52:14;;;;;;;7.55;5.20;;;;;;;12.95;43.26;98322.00;5017342;28;20036;-77
2022/04/09 10:54:43;;;;;;;6.28;4.38;;;;;;;12.62;43.40;98309.38;5016573;28;20044;-75
2022/04/09 10:57:19;;;;;;;9.02;5.05;;;;;;;12.50;44.24;98313.28;4999174;28;20045;-76
2022/04/09 10:59:55;;;;;;;5.72;4.53;;;;;;;12.87;43.36;98310.38;5002605;28;20124;-75
2022/04/09 11:02:19;;;;;;;8.20;5.47;;;;;;;12.62;44.08;98318.25;4998986;28;20422;-75
2022/04/09 11:04:44;;;;;;;6.65;5.07;;;;;;;12.10;45.87;98324.41;5017078;28;20048;-74
2022/04/09 11:07:23;;;;;;;8.60;4.97;;;;;;;12.29;45.15;98318.94;5014328;28;20064;-73
2022/04/09 11:09:57;;;;;;;8.38;5.50;;;;;;;11.83;45.68;98317.31;5015492;28;20048;-74
2022/04/09 11:12:27;;;;;;;6.63;4.95;;;;;;;11.58;46.21;98326.81;4999017;28;20523;-73
2022/04/09 11:14:54;;;;;;;6.80;4.88;;;;;;;11.40;46.83;98332.06;5021560;28;20041;-73
2022/04/09 11:17:29;;;;;;;6.30;5.10;;;;;;;11.40;47.34;98333.94;5016525;28;20037;-75
2022/04/09 11:20:00;;;;;;;8.30;5.10;;;;;;;11.39;46.87;98326.91;4999436;28;20045;-75
2022/04/09 11:22:36;;;;;;;6.97;5.10;;;;;;;11.17;48.16;98333.44;5017087;28;20495;-74
2022/04/09 11:25:03;;;;;;;7.07;4.63;;;;;;;10.93;48.27;98343.75;5015009;28;20127;-72
2022/04/09 11:27:29;;;;;;;6.88;4.88;;;;;;;10.56;48.30;98339.16;5014592;28;20127;-72
2022/04/09 11:29:56;;;;;;;6.55;4.55;;;;;;;10.44;48.94;98341.13;5005780;28;20079;-74
2022/04/09 11:32:21;;;;;;;8.68;5.00;;;;;;;10.38;48.84;98324.88;5006419;28;20120;-73
2022/04/09 11:35:11;;;;;;;7.93;5.18;;;;;;;10.47;49.32;98340.00;5005543;28;20102;-74
2022/04/09 11:37:40;;;;;;;6.53;4.78;;;;;;;10.41;50.29;98343.22;5006450;28;20041;-73
2022/04/09 11:40:07;;;;;;;10.23;5.47;;;;;;;10.49;49.58;98344.22;5015366;28;20041;-72